sensor_id;sensor_type;location;lat;lon;timestamp;pressure;altitude;pressure_sealevel;temperature;humidity
40574;BME280;26283;49.020;8.644;2023-01-30T00:00:21;100032.56;;;5.21;62.85
40574;BME280;26283;49.020;8.644;2023-01-30T00:02:46;100031.75;;;5.20;62.85
40574;BME280;26283;49.020;8.644;2023-01-30T00:05:12;100023.72;;;5.20;62.86
40574;BME280;26283;49.020;8.644;2023-01-30T00:07:37;100026.38;;;5.20;62.86
40574;BME280;26283;49.020;8.644;2023-01-30T00:10:03;100026.38;;;5.20;62.87
40574;BME280;26283;49.020;8.644;2023-01-30T00:12:29;100015.69;;;5.20;62.88
40574;BME280;26283;49.020;8.644;2023-01-30T00:14:54;100006.87;;;5.20;62.89
40574;BME280;26283;49.020;8.644;2023-01-30T00:17:19;99989.19;;;5.19;62.91
40574;BME280;26283;49.020;8.644;2023-01-30T00:19:45;99999.03;;;5.18;62.92
40574;BME280;26283;49.020;8.644;2023-01-30T00:22:10;99999.03;;;5.18;62.91
40574;BME280;26283;49.020;8.644;2023-01-30T00:24:35;100000.03;;;5.17;62.92
40574;BME280;26283;49.020;8.644;2023-01-30T00:27:01;99994.53;;;5.19;62.92
40574;BME280;26283;49.020;8.644;2023-01-30T00:29:26;100010.72;;;5.17;62.92
40574;BME280;26283;49.020;8.644;2023-01-30T00:31:51;100025.75;;;5.18;62.93
40574;BME280;26283;49.020;8.644;2023-01-30T00:34:17;100041.78;;;5.18;62.94
40574;BME280;26283;49.020;8.644;2023-01-30T00:36:43;100052.62;;;5.16;62.95
40574;BME280;26283;49.020;8.644;2023-01-30T00:39:08;100059.81;;;5.16;62.95
40574;BME280;26283;49.020;8.644;2023-01-30T00:41:33;100059.66;;;5.18;62.95
40574;BME280;26283;49.020;8.644;2023-01-30T00:44:17;100065.84;;;5.18;62.96
40574;BME280;26283;49.020;8.644;2023-01-30T00:47:01;100082.84;;;5.17;62.94
40574;BME280;26283;49.020;8.644;2023-01-30T00:49:30;100083.03;;;5.15;62.93
40574;BME280;26283;49.020;8.644;2023-01-30T00:51:55;100081.34;;;5.14;62.97
40574;BME280;26283;49.020;8.644;2023-01-30T00:54:20;100063.47;;;5.15;62.99
40574;BME280;26283;49.020;8.644;2023-01-30T00:56:46;100062.66;;;5.14;63.01
40574;BME280;26283;49.020;8.644;2023-01-30T00:59:11;100067.16;;;5.14;63.02
40574;BME280;26283;49.020;8.644;2023-01-30T01:01:37;100061.81;;;5.14;63.03
40574;BME280;26283;49.020;8.644;2023-01-30T01:04:03;100068.16;;;5.13;63.01
40574;BME280;26283;49.020;8.644;2023-01-30T01:06:29;100072.50;;;5.14;63.02
40574;BME280;26283;49.020;8.644;2023-01-30T01:08:54;100077.00;;;5.13;63.02
40574;BME280;26283;49.020;8.644;2023-01-30T01:11:20;100076.16;;;5.13;63.02
40574;BME280;26283;49.020;8.644;2023-01-30T01:13:50;100081.34;;;5.14;63.03
40574;BME280;26283;49.020;8.644;2023-01-30T01:16:16;100077.16;;;5.12;63.03
40574;BME280;26283;49.020;8.644;2023-01-30T01:18:41;100074.50;;;5.12;63.05
40574;BME280;26283;49.020;8.644;2023-01-30T01:21:06;100081.66;;;5.11;63.05
40574;BME280;26283;49.020;8.644;2023-01-30T01:23:32;100083.50;;;5.11;63.07
40574;BME280;26283;49.020;8.644;2023-01-30T01:26:00;100085.19;;;5.12;63.07
40574;BME280;26283;49.020;8.644;2023-01-30T01:28:26;100084.50;;;5.10;63.08
40574;BME280;26283;49.020;8.644;2023-01-30T01:30:51;100080.84;;;5.11;63.09
40574;BME280;26283;49.020;8.644;2023-01-30T01:33:16;100071.00;;;5.11;63.08
40574;BME280;26283;49.020;8.644;2023-01-30T01:35:42;100048.78;;;5.11;63.10
40574;BME280;26283;49.020;8.644;2023-01-30T01:38:07;100041.75;;;5.10;63.10
40574;BME280;26283;49.020;8.644;2023-01-30T01:40:33;100039.94;;;5.10;63.10
40574;BME280;26283;49.020;8.644;2023-01-30T01:43:19;100039.25;;;5.08;63.11
40574;BME280;26283;49.020;8.644;2023-01-30T01:45:47;100048.94;;;5.09;63.10
40574;BME280;26283;49.020;8.644;2023-01-30T01:48:26;100032.22;;;5.07;63.13
40574;BME280;26283;49.020;8.644;2023-01-30T01:50:58;100024.06;;;5.09;63.15
40574;BME280;26283;49.020;8.644;2023-01-30T01:53:32;100019.72;;;5.08;63.14
40574;BME280;26283;49.020;8.644;2023-01-30T01:56:01;100017.03;;;5.08;63.15
40574;BME280;26283;49.020;8.644;2023-01-30T01:58:37;100011.69;;;5.08;63.15
40574;BME280;26283;49.020;8.644;2023-01-30T02:01:04;100014.53;;;5.06;63.16
40574;BME280;26283;49.020;8.644;2023-01-30T02:03:34;99999.50;;;5.05;63.15
40574;BME280;26283;49.020;8.644;2023-01-30T02:06:02;99998.50;;;5.06;63.17
40574;BME280;26283;49.020;8.644;2023-01-30T02:08:32;99995.81;;;5.06;63.17
40574;BME280;26283;49.020;8.644;2023-01-30T02:11:38;99996.81;;;5.05;63.16
40574;BME280;26283;49.020;8.644;2023-01-30T02:14:07;99987.81;;;5.06;63.19
40574;BME280;26283;49.020;8.644;2023-01-30T02:16:35;99963.94;;;5.05;63.14
40574;BME280;26283;49.020;8.644;2023-01-30T02:19:00;99940.72;;;5.05;63.16
40574;BME280;26283;49.020;8.644;2023-01-30T02:29:54;99957.91;;;5.03;63.23
40574;BME280;26283;49.020;8.644;2023-01-30T02:37:43;99950.06;;;5.01;63.25
40574;BME280;26283;49.020;8.644;2023-01-30T02:40:29;99950.06;;;5.01;63.26
40574;BME280;26283;49.020;8.644;2023-01-30T02:43:24;99939.37;;;5.01;63.28
40574;BME280;26283;49.020;8.644;2023-01-30T02:45:54;99927.88;;;5.01;63.29
40574;BME280;26283;49.020;8.644;2023-01-30T02:48:26;99900.31;;;5.00;63.28
40574;BME280;26283;49.020;8.644;2023-01-30T02:51:05;99883.28;;;5.01;63.29
40574;BME280;26283;49.020;8.644;2023-01-30T02:53:32;99864.75;;;5.00;63.31
40574;BME280;26283;49.020;8.644;2023-01-30T02:55:58;99852.25;;;5.00;63.30
40574;BME280;26283;49.020;8.644;2023-01-30T02:58:25;99852.25;;;5.00;63.31
40574;BME280;26283;49.020;8.644;2023-01-30T03:06:21;99862.91;;;5.00;63.30
40574;BME280;26283;49.020;8.644;2023-01-30T03:11:34;99829.19;;;4.99;63.27
40574;BME280;26283;49.020;8.644;2023-01-30T03:14:12;99803.31;;;5.00;63.28
40574;BME280;26283;49.020;8.644;2023-01-30T03:16:39;99796.16;;;5.00;63.28
40574;BME280;26283;49.020;8.644;2023-01-30T03:19:09;99801.47;;;5.00;63.28
40574;BME280;26283;49.020;8.644;2023-01-30T03:21:40;99809.50;;;5.00;63.28
40574;BME280;26283;49.020;8.644;2023-01-30T03:24:07;99815.84;;;4.99;63.29
40574;BME280;26283;49.020;8.644;2023-01-30T03:26:35;99824.69;;;5.00;63.31
40574;BME280;26283;49.020;8.644;2023-01-30T03:29:03;99840.72;;;5.00;63.33
40574;BME280;26283;49.020;8.644;2023-01-30T03:31:28;99839.25;;;4.97;63.32
40574;BME280;26283;49.020;8.644;2023-01-30T03:33:54;99836.38;;;4.99;63.32
40574;BME280;26283;49.020;8.644;2023-01-30T03:36:19;99850.56;;;4.99;63.32
40574;BME280;26283;49.020;8.644;2023-01-30T03:38:45;99855.06;;;4.99;63.31
40574;BME280;26283;49.020;8.644;2023-01-30T03:41:10;99855.91;;;4.99;63.30
40574;BME280;26283;49.020;8.644;2023-01-30T03:43:35;99845.22;;;4.99;63.30
40574;BME280;26283;49.020;8.644;2023-01-30T03:46:01;99843.56;;;4.98;63.30
40574;BME280;26283;49.020;8.644;2023-01-30T03:48:26;99859.59;;;4.98;63.31
40574;BME280;26283;49.020;8.644;2023-01-30T03:50:52;99855.06;;;4.99;63.31
40574;BME280;26283;49.020;8.644;2023-01-30T03:53:18;99872.13;;;4.98;63.31
40574;BME280;26283;49.020;8.644;2023-01-30T03:55:43;99861.44;;;4.98;63.31
40574;BME280;26283;49.020;8.644;2023-01-30T03:58:09;99860.62;;;4.97;63.32
40574;BME280;26283;49.020;8.644;2023-01-30T04:00:34;99858.78;;;4.98;63.31
40574;BME280;26283;49.020;8.644;2023-01-30T04:03:00;99848.09;;;4.98;63.31
40574;BME280;26283;49.020;8.644;2023-01-30T04:05:25;99856.09;;;4.98;63.32
40574;BME280;26283;49.020;8.644;2023-01-30T04:07:51;99859.78;;;4.97;63.32
40574;BME280;26283;49.020;8.644;2023-01-30T04:10:20;99850.75;;;4.98;63.32
40574;BME280;26283;49.020;8.644;2023-01-30T04:12:45;99865.13;;;4.97;63.33
40574;BME280;26283;49.020;8.644;2023-01-30T04:15:11;99863.44;;;4.96;63.34
40574;BME280;26283;49.020;8.644;2023-01-30T04:17:37;99877.66;;;4.96;63.33
40574;BME280;26283;49.020;8.644;2023-01-30T04:20:03;99881.31;;;4.95;63.35
40574;BME280;26283;49.020;8.644;2023-01-30T04:22:28;99888.31;;;4.96;63.35
40574;BME280;26283;49.020;8.644;2023-01-30T04:24:53;99883.16;;;4.95;63.35
40574;BME280;26283;49.020;8.644;2023-01-30T04:27:19;99877.66;;;4.96;63.35
40574;BME280;26283;49.020;8.644;2023-01-30T04:29:44;99875.97;;;4.95;63.34
40574;BME280;26283;49.020;8.644;2023-01-30T04:32:09;99880.31;;;4.96;63.32
40574;BME280;26283;49.020;8.644;2023-01-30T04:34:35;99875.12;;;4.95;63.34
40574;BME280;26283;49.020;8.644;2023-01-30T04:37:00;99885.66;;;4.96;63.33
40574;BME280;26283;49.020;8.644;2023-01-30T04:39:25;99871.47;;;4.96;63.33
40574;BME280;26283;49.020;8.644;2023-01-30T04:41:51;99868.78;;;4.96;63.33
40574;BME280;26283;49.020;8.644;2023-01-30T04:44:16;99854.59;;;4.95;63.34
40574;BME280;26283;49.020;8.644;2023-01-30T04:46:41;99858.09;;;4.96;63.34
40574;BME280;26283;49.020;8.644;2023-01-30T04:49:09;99845.75;;;4.95;63.34
40574;BME280;26283;49.020;8.644;2023-01-30T04:51:35;99847.59;;;4.94;63.34
40574;BME280;26283;49.020;8.644;2023-01-30T04:54:00;99843.09;;;4.95;63.35
40574;BME280;26283;49.020;8.644;2023-01-30T04:56:26;99845.75;;;4.95;63.35
40574;BME280;26283;49.020;8.644;2023-01-30T04:58:51;99841.41;;;4.94;63.36
40574;BME280;26283;49.020;8.644;2023-01-30T05:01:21;99843.09;;;4.95;63.36
40574;BME280;26283;49.020;8.644;2023-01-30T05:03:54;99834.25;;;4.94;63.37
40574;BME280;26283;49.020;8.644;2023-01-30T05:06:20;99838.75;;;4.94;63.37
40574;BME280;26283;49.020;8.644;2023-01-30T05:08:50;99830.72;;;4.94;63.36
40574;BME280;26283;49.020;8.644;2023-01-30T05:11:16;99831.56;;;4.94;63.35
40574;BME280;26283;49.020;8.644;2023-01-30T05:13:42;99830.72;;;4.94;63.36
40574;BME280;26283;49.020;8.644;2023-01-30T05:16:11;99837.06;;;4.93;63.37
40574;BME280;26283;49.020;8.644;2023-01-30T05:18:38;99817.53;;;4.92;63.37
40574;BME280;26283;49.020;8.644;2023-01-30T05:21:05;99819.22;;;4.93;63.38
40574;BME280;26283;49.020;8.644;2023-01-30T05:23:31;99817.53;;;4.92;63.37
40574;BME280;26283;49.020;8.644;2023-01-30T05:25:56;99815.72;;;4.93;63.38
40574;BME280;26283;49.020;8.644;2023-01-30T05:28:22;99803.34;;;4.92;63.38
40574;BME280;26283;49.020;8.644;2023-01-30T05:30:47;99790.00;;;4.92;63.38
40574;BME280;26283;49.020;8.644;2023-01-30T05:33:13;99804.19;;;4.92;63.39
40574;BME280;26283;49.020;8.644;2023-01-30T05:35:38;99809.69;;;4.91;63.39
40574;BME280;26283;49.020;8.644;2023-01-30T05:38:03;99802.34;;;4.93;63.37
40574;BME280;26283;49.020;8.644;2023-01-30T05:40:28;99795.34;;;4.92;63.39
40574;BME280;26283;49.020;8.644;2023-01-30T05:42:54;99800.50;;;4.93;63.38
40574;BME280;26283;49.020;8.644;2023-01-30T05:45:19;99793.50;;;4.92;63.38
40574;BME280;26283;49.020;8.644;2023-01-30T05:47:49;99774.81;;;4.92;63.39
40574;BME280;26283;49.020;8.644;2023-01-30T05:50:16;99776.66;;;4.92;63.39
40574;BME280;26283;49.020;8.644;2023-01-30T05:52:41;99783.81;;;4.91;63.39
40574;BME280;26283;49.020;8.644;2023-01-30T05:55:07;99789.16;;;4.91;63.40
40574;BME280;26283;49.020;8.644;2023-01-30T05:57:32;99789.16;;;4.91;63.43
40574;BME280;26283;49.020;8.644;2023-01-30T05:59:57;99795.34;;;4.92;63.41
40574;BME280;26283;49.020;8.644;2023-01-30T06:02:23;99790.84;;;4.92;63.40
40574;BME280;26283;49.020;8.644;2023-01-30T06:04:48;99779.31;;;4.92;63.39
40574;BME280;26283;49.020;8.644;2023-01-30T06:07:13;99790.84;;;4.92;63.38
40574;BME280;26283;49.020;8.644;2023-01-30T06:09:39;99774.81;;;4.92;63.40
40574;BME280;26283;49.020;8.644;2023-01-30T06:12:05;99773.97;;;4.92;63.41
40574;BME280;26283;49.020;8.644;2023-01-30T06:14:31;99766.97;;;4.91;63.41
40574;BME280;26283;49.020;8.644;2023-01-30T06:16:56;99762.47;;;4.91;63.42
40574;BME280;26283;49.020;8.644;2023-01-30T06:19:21;99766.97;;;4.91;63.42
40574;BME280;26283;49.020;8.644;2023-01-30T06:21:47;99763.28;;;4.92;63.41
40574;BME280;26283;49.020;8.644;2023-01-30T06:24:12;99753.62;;;4.91;63.41
40574;BME280;26283;49.020;8.644;2023-01-30T06:26:38;99764.28;;;4.91;63.41
40574;BME280;26283;49.020;8.644;2023-01-30T06:29:03;99765.97;;;4.92;63.40
40574;BME280;26283;49.020;8.644;2023-01-30T06:31:29;99773.16;;;4.91;63.41
40574;BME280;26283;49.020;8.644;2023-01-30T06:33:54;99769.62;;;4.91;63.41
40574;BME280;26283;49.020;8.644;2023-01-30T06:36:19;99785.50;;;4.92;63.41
40574;BME280;26283;49.020;8.644;2023-01-30T06:38:45;99778.47;;;4.91;63.39
40574;BME280;26283;49.020;8.644;2023-01-30T06:41:10;99773.16;;;4.91;63.40
40574;BME280;26283;49.020;8.644;2023-01-30T06:43:36;99775.66;;;4.93;63.39
40574;BME280;26283;49.020;8.644;2023-01-30T06:46:01;99768.62;;;4.92;63.38
40574;BME280;26283;49.020;8.644;2023-01-30T06:48:26;99776.47;;;4.93;63.38
40574;BME280;26283;49.020;8.644;2023-01-30T06:50:52;99784.66;;;4.92;63.36
40574;BME280;26283;49.020;8.644;2023-01-30T06:53:17;99785.50;;;4.92;63.36
40574;BME280;26283;49.020;8.644;2023-01-30T06:55:42;99773.97;;;4.92;63.38
40574;BME280;26283;49.020;8.644;2023-01-30T06:58:10;99782.00;;;4.92;63.38
40574;BME280;26283;49.020;8.644;2023-01-30T07:00:37;99783.00;;;4.91;63.38
40574;BME280;26283;49.020;8.644;2023-01-30T07:03:04;99775.81;;;4.91;63.37
40574;BME280;26283;49.020;8.644;2023-01-30T07:05:30;99803.34;;;4.92;63.37
40574;BME280;26283;49.020;8.644;2023-01-30T07:07:56;99799.84;;;4.91;63.38
40574;BME280;26283;49.020;8.644;2023-01-30T07:10:22;99806.03;;;4.92;63.37
40574;BME280;26283;49.020;8.644;2023-01-30T07:12:48;99817.53;;;4.92;63.36
40574;BME280;26283;49.020;8.644;2023-01-30T07:15:13;99816.72;;;4.92;63.36
40574;BME280;26283;49.020;8.644;2023-01-30T07:17:39;99824.72;;;4.92;63.37
40574;BME280;26283;49.020;8.644;2023-01-30T07:20:06;99817.72;;;4.91;63.37
40574;BME280;26283;49.020;8.644;2023-01-30T07:22:31;99835.41;;;4.92;63.38
40574;BME280;26283;49.020;8.644;2023-01-30T07:24:57;99822.88;;;4.92;63.38
40574;BME280;26283;49.020;8.644;2023-01-30T07:27:22;99823.72;;;4.93;63.36
40574;BME280;26283;49.020;8.644;2023-01-30T07:29:47;99813.19;;;4.91;63.36
40574;BME280;26283;49.020;8.644;2023-01-30T07:32:15;99817.53;;;4.92;63.35
40574;BME280;26283;49.020;8.644;2023-01-30T07:34:40;99820.38;;;4.91;63.35
40574;BME280;26283;49.020;8.644;2023-01-30T07:37:06;99843.41;;;4.92;63.35
40574;BME280;26283;49.020;8.644;2023-01-30T07:39:32;99846.91;;;4.92;63.34
40574;BME280;26283;49.020;8.644;2023-01-30T07:41:59;99838.91;;;4.92;63.34
40574;BME280;26283;49.020;8.644;2023-01-30T07:44:25;99844.25;;;4.92;63.35
40574;BME280;26283;49.020;8.644;2023-01-30T07:46:50;99838.06;;;4.92;63.35
40574;BME280;26283;49.020;8.644;2023-01-30T07:49:15;99829.22;;;4.91;63.35
40574;BME280;26283;49.020;8.644;2023-01-30T07:51:41;99809.53;;;4.92;63.34
40574;BME280;26283;49.020;8.644;2023-01-30T07:54:06;99795.34;;;4.92;63.33
40574;BME280;26283;49.020;8.644;2023-01-30T07:56:31;99805.03;;;4.93;63.33
40574;BME280;26283;49.020;8.644;2023-01-30T07:58:57;99767.63;;;4.93;63.32
40574;BME280;26283;49.020;8.644;2023-01-30T08:01:22;99764.97;;;4.93;63.32
40574;BME280;26283;49.020;8.644;2023-01-30T08:03:48;99772.16;;;4.92;63.31
40574;BME280;26283;49.020;8.644;2023-01-30T08:06:16;99770.31;;;4.93;63.31
40574;BME280;26283;49.020;8.644;2023-01-30T08:08:41;99795.34;;;4.92;63.33
40574;BME280;26283;49.020;8.644;2023-01-30T08:11:07;99785.50;;;4.92;63.32
40574;BME280;26283;49.020;8.644;2023-01-30T08:13:33;99772.16;;;4.92;63.31
40574;BME280;26283;49.020;8.644;2023-01-30T08:16:03;99760.62;;;4.92;63.31
40574;BME280;26283;49.020;8.644;2023-01-30T08:18:29;99769.47;;;4.92;63.31
40574;BME280;26283;49.020;8.644;2023-01-30T08:20:59;99770.31;;;4.93;63.30
40574;BME280;26283;49.020;8.644;2023-01-30T08:23:25;99777.47;;;4.92;63.33
40574;BME280;26283;49.020;8.644;2023-01-30T08:26:00;99781.16;;;4.91;63.32
40574;BME280;26283;49.020;8.644;2023-01-30T08:28:27;99791.66;;;4.93;63.32
40574;BME280;26283;49.020;8.644;2023-01-30T08:30:53;99775.66;;;4.93;63.32
40574;BME280;26283;49.020;8.644;2023-01-30T08:33:20;99771.31;;;4.92;63.32
40574;BME280;26283;49.020;8.644;2023-01-30T08:35:46;99779.16;;;4.93;63.32
40574;BME280;26283;49.020;8.644;2023-01-30T08:38:11;99763.13;;;4.93;63.30
40574;BME280;26283;49.020;8.644;2023-01-30T08:40:36;99756.94;;;4.93;63.29
40574;BME280;26283;49.020;8.644;2023-01-30T08:43:03;99757.78;;;4.93;63.29
40574;BME280;26283;49.020;8.644;2023-01-30T08:45:29;99759.63;;;4.93;63.28
40574;BME280;26283;49.020;8.644;2023-01-30T08:47:59;99757.94;;;4.92;63.28
40574;BME280;26283;49.020;8.644;2023-01-30T08:50:24;99746.28;;;4.93;63.29
40574;BME280;26283;49.020;8.644;2023-01-30T08:52:50;99740.09;;;4.92;63.28
40574;BME280;26283;49.020;8.644;2023-01-30T08:55:15;99732.91;;;4.93;63.28
40574;BME280;26283;49.020;8.644;2023-01-30T08:57:40;99724.72;;;4.94;63.26
40574;BME280;26283;49.020;8.644;2023-01-30T09:00:06;99705.38;;;4.92;63.26
40574;BME280;26283;49.020;8.644;2023-01-30T09:02:33;99713.22;;;4.94;63.25
40574;BME280;26283;49.020;8.644;2023-01-30T09:04:58;99718.56;;;4.94;63.25
40574;BME280;26283;49.020;8.644;2023-01-30T09:07:23;99716.72;;;4.94;63.25
40574;BME280;26283;49.020;8.644;2023-01-30T09:09:49;99719.56;;;4.93;63.25
40574;BME280;26283;49.020;8.644;2023-01-30T09:12:14;99727.41;;;4.94;63.25
40574;BME280;26283;49.020;8.644;2023-01-30T09:14:40;99723.91;;;4.94;63.26
40574;BME280;26283;49.020;8.644;2023-01-30T09:17:05;99726.56;;;4.94;63.27
40574;BME280;26283;49.020;8.644;2023-01-30T09:19:30;99732.75;;;4.94;63.26
40574;BME280;26283;49.020;8.644;2023-01-30T09:21:56;99729.25;;;4.94;63.26
40574;BME280;26283;49.020;8.644;2023-01-30T09:24:22;99719.37;;;4.94;63.25
40574;BME280;26283;49.020;8.644;2023-01-30T09:26:54;99728.25;;;4.95;63.25
40574;BME280;26283;49.020;8.644;2023-01-30T09:29:26;99718.56;;;4.94;63.25
40574;BME280;26283;49.020;8.644;2023-01-30T09:31:51;99729.25;;;4.94;63.25
40574;BME280;26283;49.020;8.644;2023-01-30T09:34:17;99729.25;;;4.94;63.27
40574;BME280;26283;49.020;8.644;2023-01-30T09:36:43;99732.91;;;4.93;63.26
40574;BME280;26283;49.020;8.644;2023-01-30T09:39:09;99743.44;;;4.94;63.25
40574;BME280;26283;49.020;8.644;2023-01-30T09:47:13;99710.53;;;4.94;63.23
40574;BME280;26283;49.020;8.644;2023-01-30T09:52:51;99708.72;;;4.94;63.24
40574;BME280;26283;49.020;8.644;2023-01-30T09:55:24;99696.19;;;4.95;63.24
40574;BME280;26283;49.020;8.644;2023-01-30T09:57:51;99697.03;;;4.95;63.23
40574;BME280;26283;49.020;8.644;2023-01-30T10:10:52;99719.22;;;4.96;63.24
40574;BME280;26283;49.020;8.644;2023-01-30T10:13:34;99694.34;;;4.95;63.22
40574;BME280;26283;49.020;8.644;2023-01-30T10:16:15;99692.50;;;4.96;63.22
40574;BME280;26283;49.020;8.644;2023-01-30T10:18:59;99708.53;;;4.96;63.22
40574;BME280;26283;49.020;8.644;2023-01-30T10:24:46;99711.22;;;4.96;63.22
40574;BME280;26283;49.020;8.644;2023-01-30T10:27:16;99702.38;;;4.95;63.20
40574;BME280;26283;49.020;8.644;2023-01-30T10:29:46;99697.84;;;4.96;63.19
40574;BME280;26283;49.020;8.644;2023-01-30T10:32:18;99693.34;;;4.96;63.22
40574;BME280;26283;49.020;8.644;2023-01-30T10:34:51;99692.34;;;4.97;63.23
40574;BME280;26283;49.020;8.644;2023-01-30T10:37:26;99680.81;;;4.97;63.22
40574;BME280;26283;49.020;8.644;2023-01-30T10:42:47;99677.97;;;4.98;63.18
40574;BME280;26283;49.020;8.644;2023-01-30T10:45:16;99669.94;;;4.98;63.17
40574;BME280;26283;49.020;8.644;2023-01-30T10:51:02;99682.50;;;4.98;63.18
40574;BME280;26283;49.020;8.644;2023-01-30T10:53:50;99687.84;;;4.98;63.16
40574;BME280;26283;49.020;8.644;2023-01-30T10:56:33;99687.84;;;4.98;63.14
40574;BME280;26283;49.020;8.644;2023-01-30T11:02:05;99677.97;;;4.98;63.17
40574;BME280;26283;49.020;8.644;2023-01-30T11:04:42;99676.13;;;4.99;63.15
40574;BME280;26283;49.020;8.644;2023-01-30T11:07:11;99679.63;;;4.99;63.16
40574;BME280;26283;49.020;8.644;2023-01-30T11:09:55;99691.31;;;4.98;63.15
40574;BME280;26283;49.020;8.644;2023-01-30T11:12:21;99674.28;;;4.99;63.16
40574;BME280;26283;49.020;8.644;2023-01-30T11:14:57;99676.13;;;4.99;63.14
40574;BME280;26283;49.020;8.644;2023-01-30T11:17:37;99676.78;;;5.01;63.13
40574;BME280;26283;49.020;8.644;2023-01-30T11:20:13;99674.09;;;5.01;63.13
40574;BME280;26283;49.020;8.644;2023-01-30T11:22:59;99673.28;;;5.00;63.12
40574;BME280;26283;49.020;8.644;2023-01-30T11:25:24;99663.44;;;5.01;63.12
40574;BME280;26283;49.020;8.644;2023-01-30T11:28:13;99656.25;;;5.01;63.11
40574;BME280;26283;49.020;8.644;2023-01-30T11:30:41;99665.09;;;5.02;63.12
40574;BME280;26283;49.020;8.644;2023-01-30T11:33:14;99667.75;;;5.02;63.10
40574;BME280;26283;49.020;8.644;2023-01-30T11:36:05;99659.75;;;5.02;63.10
40574;BME280;26283;49.020;8.644;2023-01-30T11:38:35;99666.75;;;5.03;63.09
40574;BME280;26283;49.020;8.644;2023-01-30T11:41:12;99664.91;;;5.03;63.07
40574;BME280;26283;49.020;8.644;2023-01-30T11:43:42;99669.44;;;5.03;63.07
40574;BME280;26283;49.020;8.644;2023-01-30T11:46:08;99669.44;;;5.03;63.06
40574;BME280;26283;49.020;8.644;2023-01-30T11:49:03;99677.28;;;5.04;63.06
40574;BME280;26283;49.020;8.644;2023-01-30T11:51:26;99668.25;;;5.05;63.05
40574;BME280;26283;49.020;8.644;2023-01-30T11:54:04;99642.37;;;5.06;63.02
40574;BME280;26283;49.020;8.644;2023-01-30T11:56:38;99647.72;;;5.06;63.03
40574;BME280;26283;49.020;8.644;2023-01-30T11:59:20;99663.75;;;5.06;63.02
40574;BME280;26283;49.020;8.644;2023-01-30T12:01:48;99657.56;;;5.05;63.02
40574;BME280;26283;49.020;8.644;2023-01-30T12:04:14;99655.72;;;5.06;63.00
40574;BME280;26283;49.020;8.644;2023-01-30T12:06:41;99653.06;;;5.06;63.01
40574;BME280;26283;49.020;8.644;2023-01-30T12:09:34;99644.03;;;5.07;63.00
40574;BME280;26283;49.020;8.644;2023-01-30T12:12:00;99646.72;;;5.07;63.01
40574;BME280;26283;49.020;8.644;2023-01-30T12:14:41;99653.06;;;5.06;62.97
40574;BME280;26283;49.020;8.644;2023-01-30T12:17:19;99657.41;;;5.07;62.99
40574;BME280;26283;49.020;8.644;2023-01-30T12:20:11;99654.72;;;5.07;62.97
40574;BME280;26283;49.020;8.644;2023-01-30T12:25:57;99662.56;;;5.08;62.95
40574;BME280;26283;49.020;8.644;2023-01-30T12:31:32;99670.75;;;5.07;62.95
40574;BME280;26283;49.020;8.644;2023-01-30T12:34:01;99644.88;;;5.07;62.96
40574;BME280;26283;49.020;8.644;2023-01-30T12:41:52;99648.38;;;5.08;62.95
40574;BME280;26283;49.020;8.644;2023-01-30T12:47:18;99675.75;;;5.10;62.93
40574;BME280;26283;49.020;8.644;2023-01-30T12:55:29;99689.94;;;5.10;62.90
40574;BME280;26283;49.020;8.644;2023-01-30T12:58:37;99689.13;;;5.10;62.88
40574;BME280;26283;49.020;8.644;2023-01-30T13:01:30;99690.78;;;5.11;62.89
40574;BME280;26283;49.020;8.644;2023-01-30T13:04:27;99673.75;;;5.12;62.88
40574;BME280;26283;49.020;8.644;2023-01-30T13:06:56;99680.09;;;5.11;62.87
40574;BME280;26283;49.020;8.644;2023-01-30T13:15:04;99700.47;;;5.12;62.88
40574;BME280;26283;49.020;8.644;2023-01-30T13:20:18;99703.78;;;5.14;62.85
40574;BME280;26283;49.020;8.644;2023-01-30T13:28:25;99688.78;;;5.13;62.84
40574;BME280;26283;49.020;8.644;2023-01-30T13:30:53;99715.31;;;5.14;62.80
40574;BME280;26283;49.020;8.644;2023-01-30T13:33:21;99715.31;;;5.14;62.81
40574;BME280;26283;49.020;8.644;2023-01-30T13:35:53;99720.50;;;5.16;62.81
40574;BME280;26283;49.020;8.644;2023-01-30T13:38:25;99725.00;;;5.15;62.80
40574;BME280;26283;49.020;8.644;2023-01-30T13:40:55;99728.50;;;5.16;62.79
40574;BME280;26283;49.020;8.644;2023-01-30T13:43:26;99739.19;;;5.16;62.78
40574;BME280;26283;49.020;8.644;2023-01-30T13:45:56;99746.19;;;5.17;62.77
40574;BME280;26283;49.020;8.644;2023-01-30T13:54:22;99732.84;;;5.17;62.74
40574;BME280;26283;49.020;8.644;2023-01-30T13:56:56;99746.19;;;5.17;62.74
40574;BME280;26283;49.020;8.644;2023-01-30T14:02:29;99740.69;;;5.19;62.71
40574;BME280;26283;49.020;8.644;2023-01-30T14:04:56;99747.88;;;5.18;62.68
40574;BME280;26283;49.020;8.644;2023-01-30T14:07:27;99754.06;;;5.19;62.71
40574;BME280;26283;49.020;8.644;2023-01-30T14:12:48;99748.69;;;5.19;62.72
40574;BME280;26283;49.020;8.644;2023-01-30T14:18:12;99739.69;;;5.20;62.69
40574;BME280;26283;49.020;8.644;2023-01-30T14:20:48;99732.47;;;5.20;62.70
40574;BME280;26283;49.020;8.644;2023-01-30T14:23:21;99732.69;;;5.19;62.66
40574;BME280;26283;49.020;8.644;2023-01-30T14:25:57;99733.50;;;5.19;62.67
40574;BME280;26283;49.020;8.644;2023-01-30T14:30:50;99734.13;;;5.21;62.66
40574;BME280;26283;49.020;8.644;2023-01-30T14:56:14;99769.53;;;5.23;62.56
40574;BME280;26283;49.020;8.644;2023-01-30T14:58:50;99780.22;;;5.23;62.56
40574;BME280;26283;49.020;8.644;2023-01-30T15:01:16;99779.37;;;5.23;62.57
40574;BME280;26283;49.020;8.644;2023-01-30T15:03:45;99803.28;;;5.24;62.57
40574;BME280;26283;49.020;8.644;2023-01-30T15:06:12;99803.28;;;5.24;62.56
40574;BME280;26283;49.020;8.644;2023-01-30T15:08:40;99793.41;;;5.25;62.56
40574;BME280;26283;49.020;8.644;2023-01-30T15:11:15;99799.59;;;5.25;62.55
40574;BME280;26283;49.020;8.644;2023-01-30T15:14:05;99805.94;;;5.24;62.55
40574;BME280;26283;49.020;8.644;2023-01-30T15:24:47;99822.81;;;5.25;62.53
40574;BME280;26283;49.020;8.644;2023-01-30T15:27:26;99823.66;;;5.25;62.52
40574;BME280;26283;49.020;8.644;2023-01-30T15:32:31;99821.97;;;5.24;62.52
40574;BME280;26283;49.020;8.644;2023-01-30T15:37:49;99845.03;;;5.25;62.55
40574;BME280;26283;49.020;8.644;2023-01-30T15:43:11;99845.03;;;5.25;62.53